sensor_id;sensor_type;location;lat;lon;timestamp;pressure;altitude;pressure_sealevel;temperature;humidity
3844;BME280;1937;51.444;6.484;2023-05-29T00:00:32;67573.78;;;14.27;73.56
3844;BME280;1937;51.444;6.484;2023-05-29T00:02:59;67561.00;;;14.16;74.30
3844;BME280;1937;51.444;6.484;2023-05-29T00:05:26;67585.28;;;14.28;74.19
3844;BME280;1937;51.444;6.484;2023-05-29T00:07:53;67576.44;;;14.07;74.94
3844;BME280;1937;51.444;6.484;2023-05-29T00:10:22;67540.09;;;13.98;75.94
3844;BME280;1937;51.444;6.484;2023-05-29T00:12:48;67554.50;;;14.02;75.75
3844;BME280;1937;51.444;6.484;2023-05-29T00:15:16;67562.41;;;13.90;76.67
3844;BME280;1937;51.444;6.484;2023-05-29T00:17:42;67508.59;;;13.86;76.51
3844;BME280;1937;51.444;6.484;2023-05-29T00:20:10;67545.63;;;13.80;76.91
3844;BME280;1937;51.444;6.484;2023-05-29T00:22:37;67508.69;;;13.66;78.13
3844;BME280;1937;51.444;6.484;2023-05-29T00:25:04;67525.94;;;13.68;78.41
3844;BME280;1937;51.444;6.484;2023-05-29T00:27:33;67516.22;;;13.73;77.90
3844;BME280;1937;51.444;6.484;2023-05-29T00:29:59;67514.63;;;13.60;78.84
3844;BME280;1937;51.444;6.484;2023-05-29T00:32:26;67522.06;;;13.58;79.58
3844;BME280;1937;51.444;6.484;2023-05-29T00:34:53;67507.00;;;13.49;80.11
3844;BME280;1937;51.444;6.484;2023-05-29T00:37:20;67469.50;;;13.34;81.16
3844;BME280;1937;51.444;6.484;2023-05-29T00:39:47;67483.91;;;13.38;81.29
3844;BME280;1937;51.444;6.484;2023-05-29T00:42:13;67484.22;;;13.40;81.90
3844;BME280;1937;51.444;6.484;2023-05-29T00:44:41;67511.25;;;13.41;82.01
3844;BME280;1937;51.444;6.484;2023-05-29T00:47:08;67432.56;;;13.20;83.14
3844;BME280;1937;51.444;6.484;2023-05-29T00:49:35;67478.50;;;13.20;83.21
3844;BME280;1937;51.444;6.484;2023-05-29T00:52:03;67443.38;;;13.11;83.81
3844;BME280;1937;51.444;6.484;2023-05-29T00:54:32;67450.63;;;12.95;85.76
3844;BME280;1937;51.444;6.484;2023-05-29T00:56:59;67447.47;;;12.95;86.34
3844;BME280;1937;51.444;6.484;2023-05-29T00:59:30;67438.44;;;12.85;86.63
3844;BME280;1937;51.444;6.484;2023-05-29T01:02:01;67426.63;;;12.81;87.32
3844;BME280;1937;51.444;6.484;2023-05-29T01:04:28;67421.03;;;12.69;88.53
3844;BME280;1937;51.444;6.484;2023-05-29T01:06:58;67422.50;;;12.73;88.47
3844;BME280;1937;51.444;6.484;2023-05-29T01:09:26;67387.03;;;12.58;89.50
3844;BME280;1937;51.444;6.484;2023-05-29T01:11:59;67425.34;;;12.71;88.69
3844;BME280;1937;51.444;6.484;2023-05-29T01:14:33;67409.69;;;12.57;90.68
3844;BME280;1937;51.444;6.484;2023-05-29T01:17:11;67381.03;;;12.39;90.36
3844;BME280;1937;51.444;6.484;2023-05-29T01:22:54;67358.22;;;12.26;91.33
3844;BME280;1937;51.444;6.484;2023-05-29T01:25:31;67373.97;;;12.24;91.37
3844;BME280;1937;51.444;6.484;2023-05-29T01:28:04;67337.13;;;12.14;91.18
3844;BME280;1937;51.444;6.484;2023-05-29T01:30:32;67362.72;;;12.21;90.86
3844;BME280;1937;51.444;6.484;2023-05-29T01:32:59;67351.84;;;12.20;90.15
3844;BME280;1937;51.444;6.484;2023-05-29T01:35:26;67327.28;;;12.06;90.68
3844;BME280;1937;51.444;6.484;2023-05-29T01:37:52;67367.78;;;12.12;90.04
3844;BME280;1937;51.444;6.484;2023-05-29T01:40:19;67318.28;;;11.96;89.20
3844;BME280;1937;51.444;6.484;2023-05-29T01:42:46;67333.59;;;12.07;88.52
3844;BME280;1937;51.444;6.484;2023-05-29T01:45:14;67330.44;;;12.06;88.60
3844;BME280;1937;51.444;6.484;2023-05-29T01:47:42;67320.59;;;11.98;88.54
3844;BME280;1937;51.444;6.484;2023-05-29T01:50:10;67305.63;;;11.94;87.52
3844;BME280;1937;51.444;6.484;2023-05-29T01:52:39;67300.28;;;12.00;85.98
3844;BME280;1937;51.444;6.484;2023-05-29T01:55:06;67303.09;;;11.98;86.30
3844;BME280;1937;51.444;6.484;2023-05-29T01:57:34;67285.41;;;11.80;86.58
3844;BME280;1937;51.444;6.484;2023-05-29T02:00:02;67342.72;;;12.01;86.20
3844;BME280;1937;51.444;6.484;2023-05-29T02:02:36;67287.59;;;11.73;87.16
3844;BME280;1937;51.444;6.484;2023-05-29T02:05:04;67316.88;;;11.76;85.68
3844;BME280;1937;51.444;6.484;2023-05-29T02:07:31;67259.41;;;11.67;85.16
3844;BME280;1937;51.444;6.484;2023-05-29T02:09:58;67243.78;;;11.53;84.11
3844;BME280;1937;51.444;6.484;2023-05-29T02:12:24;67263.19;;;11.47;82.62
3844;BME280;1937;51.444;6.484;2023-05-29T02:14:51;67242.03;;;11.52;82.54
3844;BME280;1937;51.444;6.484;2023-05-29T02:17:17;67230.63;;;11.55;82.43
3844;BME280;1937;51.444;6.484;2023-05-29T02:19:46;67194.69;;;11.44;81.95
3844;BME280;1937;51.444;6.484;2023-05-29T02:22:13;67253.03;;;11.61;81.87
3844;BME280;1937;51.444;6.484;2023-05-29T02:24:39;67201.31;;;11.47;82.25
3844;BME280;1937;51.444;6.484;2023-05-29T02:27:06;67231.66;;;11.47;81.36
3844;BME280;1937;51.444;6.484;2023-05-29T02:29:32;67261.88;;;11.58;82.30
3844;BME280;1937;51.444;6.484;2023-05-29T02:31:59;67218.84;;;11.31;81.90
3844;BME280;1937;51.444;6.484;2023-05-29T02:34:25;67233.47;;;11.53;81.93
3844;BME280;1937;51.444;6.484;2023-05-29T02:36:53;67218.66;;;11.38;82.14
3844;BME280;1937;51.444;6.484;2023-05-29T02:39:20;67182.78;;;11.31;81.32
3844;BME280;1937;51.444;6.484;2023-05-29T02:41:47;67237.03;;;11.40;82.16
3844;BME280;1937;51.444;6.484;2023-05-29T02:44:13;67223.13;;;11.28;82.31
3844;BME280;1937;51.444;6.484;2023-05-29T02:46:40;67222.78;;;11.26;81.43
3844;BME280;1937;51.444;6.484;2023-05-29T02:49:06;67233.34;;;11.44;80.92
3844;BME280;1937;51.444;6.484;2023-05-29T02:51:33;67199.09;;;11.30;81.54
3844;BME280;1937;51.444;6.484;2023-05-29T02:54:01;67203.97;;;11.32;81.26
3844;BME280;1937;51.444;6.484;2023-05-29T02:56:28;67198.78;;;11.27;81.24
3844;BME280;1937;51.444;6.484;2023-05-29T02:58:55;67208.19;;;11.24;82.32
3844;BME280;1937;51.444;6.484;2023-05-29T03:01:21;67157.84;;;11.05;82.09
3844;BME280;1937;51.444;6.484;2023-05-29T03:03:48;67153.03;;;10.87;83.16
3844;BME280;1937;51.444;6.484;2023-05-29T03:06:14;67153.03;;;10.87;82.93
3844;BME280;1937;51.444;6.484;2023-05-29T03:08:43;67127.09;;;10.94;82.72
3844;BME280;1937;51.444;6.484;2023-05-29T03:11:11;67144.59;;;10.98;82.64
3844;BME280;1937;51.444;6.484;2023-05-29T03:13:38;67176.13;;;11.03;82.20
3844;BME280;1937;51.444;6.484;2023-05-29T03:16:05;67143.03;;;10.90;82.99
3844;BME280;1937;51.444;6.484;2023-05-29T03:18:33;67142.88;;;10.76;83.32
3844;BME280;1937;51.444;6.484;2023-05-29T03:21:00;67170.34;;;10.98;83.01
3844;BME280;1937;51.444;6.484;2023-05-29T03:23:26;67146.38;;;11.04;82.29
3844;BME280;1937;51.444;6.484;2023-05-29T03:25:53;67160.38;;;10.80;83.64
3844;BME280;1937;51.444;6.484;2023-05-29T03:28:21;67165.59;;;10.85;84.07
3844;BME280;1937;51.444;6.484;2023-05-29T03:30:48;67117.78;;;10.61;85.02
3844;BME280;1937;51.444;6.484;2023-05-29T03:33:14;67083.53;;;10.67;84.76
3844;BME280;1937;51.444;6.484;2023-05-29T03:35:41;67093.34;;;10.71;84.36
3844;BME280;1937;51.444;6.484;2023-05-29T03:38:07;67117.38;;;10.74;84.91
3844;BME280;1937;51.444;6.484;2023-05-29T03:40:34;67125.88;;;10.68;85.34
3844;BME280;1937;51.444;6.484;2023-05-29T03:43:00;67116.66;;;10.60;85.32
3844;BME280;1937;51.444;6.484;2023-05-29T03:45:28;67152.00;;;10.75;85.21
3844;BME280;1937;51.444;6.484;2023-05-29T03:47:55;67113.84;;;10.66;85.14
3844;BME280;1937;51.444;6.484;2023-05-29T03:50:21;67127.44;;;10.56;86.27
3844;BME280;1937;51.444;6.484;2023-05-29T03:52:48;67107.97;;;10.52;85.62
3844;BME280;1937;51.444;6.484;2023-05-29T03:55:14;67103.53;;;10.42;87.04
3844;BME280;1937;51.444;6.484;2023-05-29T03:57:41;67120.06;;;10.58;86.62
3844;BME280;1937;51.444;6.484;2023-05-29T04:00:09;67113.69;;;10.53;86.16
3844;BME280;1937;51.444;6.484;2023-05-29T04:02:38;67118.25;;;10.52;86.71
3844;BME280;1937;51.444;6.484;2023-05-29T04:05:05;67080.81;;;10.33;87.65
3844;BME280;1937;51.444;6.484;2023-05-29T04:07:32;67150.28;;;10.53;87.07
3844;BME280;1937;51.444;6.484;2023-05-29T04:09:59;67099.28;;;10.45;87.40
3844;BME280;1937;51.444;6.484;2023-05-29T04:12:25;67095.94;;;10.51;87.34
3844;BME280;1937;51.444;6.484;2023-05-29T04:14:52;67105.78;;;10.59;86.89
3844;BME280;1937;51.444;6.484;2023-05-29T04:17:18;67120.78;;;10.73;86.46
3844;BME280;1937;51.444;6.484;2023-05-29T04:19:46;67152.53;;;10.71;87.00
3844;BME280;1937;51.444;6.484;2023-05-29T04:22:13;67166.50;;;10.67;86.61
3844;BME280;1937;51.444;6.484;2023-05-29T04:24:40;67155.03;;;10.66;86.02
3844;BME280;1937;51.444;6.484;2023-05-29T04:27:07;67132.78;;;10.70;86.98
3844;BME280;1937;51.444;6.484;2023-05-29T04:29:34;67111.41;;;10.55;87.36
3844;BME280;1937;51.444;6.484;2023-05-29T04:32:00;67141.03;;;10.65;86.81
3844;BME280;1937;51.444;6.484;2023-05-29T04:34:28;67127.97;;;10.52;87.33
3844;BME280;1937;51.444;6.484;2023-05-29T04:36:57;67122.72;;;10.67;86.75
3844;BME280;1937;51.444;6.484;2023-05-29T04:39:23;67111.75;;;10.38;88.23
3844;BME280;1937;51.444;6.484;2023-05-29T04:41:50;67122.28;;;10.56;87.74
3844;BME280;1937;51.444;6.484;2023-05-29T04:44:17;67141.38;;;10.73;87.31
3844;BME280;1937;51.444;6.484;2023-05-29T04:46:43;67139.03;;;10.66;86.92
3844;BME280;1937;51.444;6.484;2023-05-29T04:49:10;67184.38;;;10.79;87.08
3844;BME280;1937;51.444;6.484;2023-05-29T04:51:38;67178.97;;;10.81;86.13
3844;BME280;1937;51.444;6.484;2023-05-29T04:54:07;67168.88;;;10.74;86.37
3844;BME280;1937;51.444;6.484;2023-05-29T04:56:34;67151.81;;;10.82;87.19
3844;BME280;1937;51.444;6.484;2023-05-29T04:59:00;67174.41;;;11.01;85.69
3844;BME280;1937;51.444;6.484;2023-05-29T05:01:27;67173.75;;;10.96;86.37
3844;BME280;1937;51.444;6.484;2023-05-29T05:03:54;67187.00;;;11.03;85.81
3844;BME280;1937;51.444;6.484;2023-05-29T05:06:21;67206.72;;;11.00;85.38
3844;BME280;1937;51.444;6.484;2023-05-29T05:08:47;67192.09;;;10.99;85.40
3844;BME280;1937;51.444;6.484;2023-05-29T05:11:15;67182.81;;;10.91;85.91
3844;BME280;1937;51.444;6.484;2023-05-29T05:13:42;67183.78;;;10.78;86.49
3844;BME280;1937;51.444;6.484;2023-05-29T05:16:08;67175.28;;;11.04;85.94
3844;BME280;1937;51.444;6.484;2023-05-29T05:18:35;67198.47;;;11.04;85.67
3844;BME280;1937;51.444;6.484;2023-05-29T05:21:03;67242.13;;;11.16;84.54
3844;BME280;1937;51.444;6.484;2023-05-29T05:23:31;67189.34;;;11.05;85.17
3844;BME280;1937;51.444;6.484;2023-05-29T05:25:58;67260.84;;;11.25;85.23
3844;BME280;1937;51.444;6.484;2023-05-29T05:28:26;67259.63;;;11.40;83.90
3844;BME280;1937;51.444;6.484;2023-05-29T05:30:53;67305.56;;;11.89;83.42
3844;BME280;1937;51.444;6.484;2023-05-29T05:33:19;67272.56;;;11.85;81.55
3844;BME280;1937;51.444;6.484;2023-05-29T05:35:46;67331.72;;;11.96;82.68
3844;BME280;1937;51.444;6.484;2023-05-29T05:38:12;67339.06;;;12.09;81.30
3844;BME280;1937;51.444;6.484;2023-05-29T05:40:39;67367.78;;;12.12;80.72
3844;BME280;1937;51.444;6.484;2023-05-29T05:43:05;67372.16;;;12.18;80.84
3844;BME280;1937;51.444;6.484;2023-05-29T05:45:33;67393.38;;;12.39;80.35
3844;BME280;1937;51.444;6.484;2023-05-29T05:48:01;67404.91;;;12.44;80.10
3844;BME280;1937;51.444;6.484;2023-05-29T05:50:28;67379.31;;;12.17;78.78
3844;BME280;1937;51.444;6.484;2023-05-29T05:52:55;67364.81;;;12.25;79.59
3844;BME280;1937;51.444;6.484;2023-05-29T05:55:21;67369.31;;;12.20;78.80
3844;BME280;1937;51.444;6.484;2023-05-29T05:57:48;67355.91;;;12.04;79.98
3844;BME280;1937;51.444;6.484;2023-05-29T06:00:15;67333.66;;;12.11;79.79
3844;BME280;1937;51.444;6.484;2023-05-29T06:02:43;67352.81;;;12.08;80.24
3844;BME280;1937;51.444;6.484;2023-05-29T06:05:10;67469.06;;;12.57;78.16
3844;BME280;1937;51.444;6.484;2023-05-29T06:07:37;67379.63;;;12.40;78.64
3844;BME280;1937;51.444;6.484;2023-05-29T06:10:05;67447.47;;;12.95;76.80
3844;BME280;1937;51.444;6.484;2023-05-29T06:12:31;67429.91;;;12.91;76.33
3844;BME280;1937;51.444;6.484;2023-05-29T06:14:58;67467.28;;;12.96;75.03
3844;BME280;1937;51.444;6.484;2023-05-29T06:17:24;67451.31;;;13.05;74.99
3844;BME280;1937;51.444;6.484;2023-05-29T06:19:53;67520.81;;;13.27;74.66
3844;BME280;1937;51.444;6.484;2023-05-29T06:22:20;67518.47;;;13.45;73.26
3844;BME280;1937;51.444;6.484;2023-05-29T06:24:46;67563.25;;;13.64;73.97
3844;BME280;1937;51.444;6.484;2023-05-29T06:27:13;67581.09;;;13.66;74.00
3844;BME280;1937;51.444;6.484;2023-05-29T06:29:39;67521.84;;;13.39;72.39
3844;BME280;1937;51.444;6.484;2023-05-29T06:32:06;67508.22;;;13.30;73.46
3844;BME280;1937;51.444;6.484;2023-05-29T06:34:32;67430.16;;;12.89;74.97
3844;BME280;1937;51.444;6.484;2023-05-29T06:37:00;67530.97;;;13.34;73.38
3844;BME280;1937;51.444;6.484;2023-05-29T06:39:27;67540.50;;;13.60;72.52
3844;BME280;1937;51.444;6.484;2023-05-29T06:41:54;67535.69;;;13.42;72.31
3844;BME280;1937;51.444;6.484;2023-05-29T06:44:21;67607.84;;;13.89;72.43
3844;BME280;1937;51.444;6.484;2023-05-29T06:46:47;67630.13;;;14.02;71.09
3844;BME280;1937;51.444;6.484;2023-05-29T06:49:14;67647.31;;;14.40;70.75
3844;BME280;1937;51.444;6.484;2023-05-29T06:51:40;67631.56;;;14.26;71.23
3844;BME280;1937;51.444;6.484;2023-05-29T06:54:08;67697.31;;;14.58;70.34
3844;BME280;1937;51.444;6.484;2023-05-29T06:56:35;67699.88;;;14.54;70.31
3844;BME280;1937;51.444;6.484;2023-05-29T06:59:02;67696.06;;;14.48;68.99
3844;BME280;1937;51.444;6.484;2023-05-29T07:01:28;67758.63;;;14.80;68.28
3844;BME280;1937;51.444;6.484;2023-05-29T07:03:55;67761.16;;;14.96;67.61
3844;BME280;1937;51.444;6.484;2023-05-29T07:06:21;67669.25;;;14.45;68.77
3844;BME280;1937;51.444;6.484;2023-05-29T07:08:48;67745.41;;;14.82;67.65
3844;BME280;1937;51.444;6.484;2023-05-29T07:11:16;67710.81;;;14.79;69.12
3844;BME280;1937;51.444;6.484;2023-05-29T07:13:42;67709.09;;;14.78;68.56
3844;BME280;1937;51.444;6.484;2023-05-29T07:16:09;67690.41;;;14.57;68.39
3844;BME280;1937;51.444;6.484;2023-05-29T07:18:35;67655.19;;;14.49;69.75
3844;BME280;1937;51.444;6.484;2023-05-29T07:21:02;67665.91;;;14.56;69.68
3844;BME280;1937;51.444;6.484;2023-05-29T07:23:29;67825.50;;;15.29;67.82
3844;BME280;1937;51.444;6.484;2023-05-29T07:25:55;67904.09;;;15.64;67.00
3844;BME280;1937;51.444;6.484;2023-05-29T07:28:23;67883.00;;;15.61;66.75
3844;BME280;1937;51.444;6.484;2023-05-29T07:30:50;67908.59;;;15.79;65.00
3844;BME280;1937;51.444;6.484;2023-05-29T07:33:16;67906.50;;;15.95;65.54
3844;BME280;1937;51.444;6.484;2023-05-29T07:35:43;67934.16;;;15.92;65.39
3844;BME280;1937;51.444;6.484;2023-05-29T07:38:10;68000.22;;;16.38;64.79
3844;BME280;1937;51.444;6.484;2023-05-29T07:40:36;67988.91;;;16.30;63.50
3844;BME280;1937;51.444;6.484;2023-05-29T07:43:03;67977.53;;;16.23;63.25
3844;BME280;1937;51.444;6.484;2023-05-29T07:45:30;67937.81;;;16.09;63.76
3844;BME280;1937;51.444;6.484;2023-05-29T07:47:57;68003.53;;;16.48;63.42
3844;BME280;1937;51.444;6.484;2023-05-29T07:50:24;67920.72;;;16.01;63.82
3844;BME280;1937;51.444;6.484;2023-05-29T07:52:50;67846.78;;;15.50;64.50
3844;BME280;1937;51.444;6.484;2023-05-29T07:55:17;67872.44;;;15.47;65.65
3844;BME280;1937;51.444;6.484;2023-05-29T07:57:44;67951.19;;;16.16;64.65
3844;BME280;1937;51.444;6.484;2023-05-29T08:00:12;67858.19;;;15.82;64.71
3844;BME280;1937;51.444;6.484;2023-05-29T08:02:40;67843.38;;;15.51;65.81
3844;BME280;1937;51.444;6.484;2023-05-29T08:05:08;67889.53;;;15.76;66.16
3844;BME280;1937;51.444;6.484;2023-05-29T08:07:34;67814.81;;;15.51;66.49
3844;BME280;1937;51.444;6.484;2023-05-29T08:10:01;67972.09;;;16.25;64.30
3844;BME280;1937;51.444;6.484;2023-05-29T08:12:27;67976.97;;;16.47;62.14
3844;BME280;1937;51.444;6.484;2023-05-29T08:14:54;68099.19;;;16.97;62.75
3844;BME280;1937;51.444;6.484;2023-05-29T08:17:21;68173.94;;;17.32;62.12
3844;BME280;1937;51.444;6.484;2023-05-29T08:19:49;68165.72;;;17.45;60.39
3844;BME280;1937;51.444;6.484;2023-05-29T08:22:16;68193.25;;;17.49;60.11
3844;BME280;1937;51.444;6.484;2023-05-29T08:24:42;68138.94;;;17.31;60.68
3844;BME280;1937;51.444;6.484;2023-05-29T08:27:09;68096.72;;;17.06;60.44
3844;BME280;1937;51.444;6.484;2023-05-29T08:29:35;67982.91;;;16.36;61.19
3844;BME280;1937;51.444;6.484;2023-05-29T08:32:04;67980.53;;;16.55;61.83
3844;BME280;1937;51.444;6.484;2023-05-29T08:34:30;68106.44;;;17.21;61.52
3844;BME280;1937;51.444;6.484;2023-05-29T08:36:58;68236.66;;;17.71;60.05
3844;BME280;1937;51.444;6.484;2023-05-29T08:39:25;68138.78;;;17.42;59.04
3844;BME280;1937;51.444;6.484;2023-05-29T08:41:57;68100.38;;;16.98;59.87
3844;BME280;1937;51.444;6.484;2023-05-29T08:44:29;68056.91;;;16.87;60.74
3844;BME280;1937;51.444;6.484;2023-05-29T08:46:57;68132.81;;;17.28;60.36
3844;BME280;1937;51.444;6.484;2023-05-29T08:49:28;68065.59;;;17.15;59.30
3844;BME280;1937;51.444;6.484;2023-05-29T08:52:05;68004.09;;;16.68;61.41
3844;BME280;1937;51.444;6.484;2023-05-29T08:54:35;68057.63;;;16.76;63.04
3844;BME280;1937;51.444;6.484;2023-05-29T08:57:02;68033.22;;;16.64;61.75
3844;BME280;1937;51.444;6.484;2023-05-29T08:59:29;67995.47;;;16.50;62.08
3844;BME280;1937;51.444;6.484;2023-05-29T09:01:56;68008.69;;;16.68;61.59
3844;BME280;1937;51.444;6.484;2023-05-29T09:04:23;68072.03;;;16.96;61.42
3844;BME280;1937;51.444;6.484;2023-05-29T09:06:50;68177.41;;;17.55;60.81
3844;BME280;1937;51.444;6.484;2023-05-29T09:09:19;68143.38;;;17.37;59.83
3844;BME280;1937;51.444;6.484;2023-05-29T09:11:46;68116.16;;;17.36;59.69
3844;BME280;1937;51.444;6.484;2023-05-29T09:14:33;68381.38;;;18.55;58.51
3844;BME280;1937;51.444;6.484;2023-05-29T09:17:00;68412.50;;;18.66;57.87
3844;BME280;1937;51.444;6.484;2023-05-29T09:19:27;68334.28;;;18.46;58.66
3844;BME280;1937;51.444;6.484;2023-05-29T09:22:00;68345.28;;;18.47;58.23
3844;BME280;1937;51.444;6.484;2023-05-29T09:24:28;68414.00;;;18.70;58.21
3844;BME280;1937;51.444;6.484;2023-05-29T09:26:55;68394.63;;;18.73;56.03
3844;BME280;1937;51.444;6.484;2023-05-29T09:29:22;68270.81;;;18.18;56.47
3844;BME280;1937;51.444;6.484;2023-05-29T09:31:50;68261.13;;;18.08;57.27
3844;BME280;1937;51.444;6.484;2023-05-29T09:34:17;68231.06;;;17.88;57.72
3844;BME280;1937;51.444;6.484;2023-05-29T09:36:44;68128.59;;;17.36;58.74
3844;BME280;1937;51.444;6.484;2023-05-29T09:39:10;68164.66;;;17.53;58.78
3844;BME280;1937;51.444;6.484;2023-05-29T09:41:42;68160.47;;;17.41;60.01
3844;BME280;1937;51.444;6.484;2023-05-29T09:44:12;68218.00;;;17.84;58.51
3844;BME280;1937;51.444;6.484;2023-05-29T09:46:39;68279.16;;;18.14;58.18
3844;BME280;1937;51.444;6.484;2023-05-29T09:49:10;68254.47;;;18.09;57.84
3844;BME280;1937;51.444;6.484;2023-05-29T09:51:37;68281.09;;;18.09;57.74
3844;BME280;1937;51.444;6.484;2023-05-29T09:54:14;68251.75;;;17.99;58.94
3844;BME280;1937;51.444;6.484;2023-05-29T09:56:43;68412.03;;;18.75;57.44
3844;BME280;1937;51.444;6.484;2023-05-29T09:59:11;68350.59;;;18.76;56.04
3844;BME280;1937;51.444;6.484;2023-05-29T10:01:39;68441.13;;;18.82;56.64
3844;BME280;1937;51.444;6.484;2023-05-29T10:04:07;68326.47;;;18.46;57.13
3844;BME280;1937;51.444;6.484;2023-05-29T10:06:35;68425.44;;;19.02;55.63
3844;BME280;1937;51.444;6.484;2023-05-29T10:09:02;68632.41;;;19.77;54.51
3844;BME280;1937;51.444;6.484;2023-05-29T10:11:33;68576.38;;;19.76;53.32
3844;BME280;1937;51.444;6.484;2023-05-29T10:14:02;68501.25;;;19.36;53.35
3844;BME280;1937;51.444;6.484;2023-05-29T10:16:31;68586.91;;;19.60;55.51
3844;BME280;1937;51.444;6.484;2023-05-29T10:19:05;68581.22;;;19.69;54.31
3844;BME280;1937;51.444;6.484;2023-05-29T10:21:36;68372.84;;;18.70;56.15
3844;BME280;1937;51.444;6.484;2023-05-29T10:24:06;68454.72;;;19.03;55.55
3844;BME280;1937;51.444;6.484;2023-05-29T10:26:36;68468.25;;;19.19;55.59
3844;BME280;1937;51.444;6.484;2023-05-29T10:29:14;68471.19;;;19.21;55.29
3844;BME280;1937;51.444;6.484;2023-05-29T10:31:52;68419.44;;;18.88;55.64
3844;BME280;1937;51.444;6.484;2023-05-29T10:34:30;68358.97;;;18.52;56.40
3844;BME280;1937;51.444;6.484;2023-05-29T10:37:04;68517.78;;;19.35;55.62
3844;BME280;1937;51.444;6.484;2023-05-29T10:39:32;68613.59;;;19.81;53.76
3844;BME280;1937;51.444;6.484;2023-05-29T10:42:00;68585.66;;;19.75;55.03
3844;BME280;1937;51.444;6.484;2023-05-29T10:44:46;68477.97;;;19.30;54.21
3844;BME280;1937;51.444;6.484;2023-05-29T10:47:22;68693.50;;;20.05;54.57
3844;BME280;1937;51.444;6.484;2023-05-29T10:49:50;68567.84;;;19.67;53.76
3844;BME280;1937;51.444;6.484;2023-05-29T10:52:19;68619.47;;;19.86;54.17
3844;BME280;1937;51.444;6.484;2023-05-29T10:54:51;68674.44;;;20.16;53.97
3844;BME280;1937;51.444;6.484;2023-05-29T10:57:21;68756.72;;;20.37;52.54
3844;BME280;1937;51.444;6.484;2023-05-29T10:59:57;68541.91;;;19.60;54.59
3844;BME280;1937;51.444;6.484;2023-05-29T11:02:24;68556.94;;;19.55;54.06
3844;BME280;1937;51.444;6.484;2023-05-29T11:05:18;68607.25;;;19.85;53.93
3844;BME280;1937;51.444;6.484;2023-05-29T11:07:56;68602.59;;;19.85;53.21
3844;BME280;1937;51.444;6.484;2023-05-29T11:10:42;68782.00;;;20.59;53.50
3844;BME280;1937;51.444;6.484;2023-05-29T11:13:09;68765.19;;;20.62;52.90
3844;BME280;1937;51.444;6.484;2023-05-29T11:15:37;68642.59;;;19.99;52.35
3844;BME280;1937;51.444;6.484;2023-05-29T11:18:07;68529.00;;;19.49;53.70
3844;BME280;1937;51.444;6.484;2023-05-29T11:20:43;68503.28;;;19.36;54.06
3844;BME280;1937;51.444;6.484;2023-05-29T11:23:15;68618.41;;;19.94;53.44
3844;BME280;1937;51.444;6.484;2023-05-29T11:25:44;68621.88;;;19.93;51.98
3844;BME280;1937;51.444;6.484;2023-05-29T11:28:11;68591.84;;;19.83;53.69
3844;BME280;1937;51.444;6.484;2023-05-29T11:30:43;68588.19;;;19.91;52.54
3844;BME280;1937;51.444;6.484;2023-05-29T11:36:00;68547.16;;;19.60;52.84
3844;BME280;1937;51.444;6.484;2023-05-29T11:38:28;68606.41;;;19.86;54.06
3844;BME280;1937;51.444;6.484;2023-05-29T11:40:55;68634.00;;;20.10;52.59
3844;BME280;1937;51.444;6.484;2023-05-29T11:43:21;68766.97;;;20.64;51.69
3844;BME280;1937;51.444;6.484;2023-05-29T11:45:49;68751.06;;;20.50;51.81
3844;BME280;1937;51.444;6.484;2023-05-29T11:48:16;68657.06;;;20.19;51.33
3844;BME280;1937;51.444;6.484;2023-05-29T11:50:43;68639.22;;;20.10;52.00
3844;BME280;1937;51.444;6.484;2023-05-29T11:53:11;68517.69;;;19.50;53.50
3844;BME280;1937;51.444;6.484;2023-05-29T11:55:38;68610.88;;;19.97;52.62
3844;BME280;1937;51.444;6.484;2023-05-29T11:58:05;68712.25;;;20.37;51.67
3844;BME280;1937;51.444;6.484;2023-05-29T12:00:32;68656.22;;;20.20;50.69
3844;BME280;1937;51.444;6.484;2023-05-29T12:03:01;68673.53;;;20.33;50.59
3844;BME280;1937;51.444;6.484;2023-05-29T12:05:33;68725.19;;;20.48;51.34
3844;BME280;1937;51.444;6.484;2023-05-29T12:08:11;68634.75;;;19.99;51.31
3844;BME280;1937;51.444;6.484;2023-05-29T12:10:40;68712.38;;;20.26;52.36
3844;BME280;1937;51.444;6.484;2023-05-29T12:13:12;68658.34;;;20.29;50.97
3844;BME280;1937;51.444;6.484;2023-05-29T12:15:39;68801.69;;;20.73;51.60
3844;BME280;1937;51.444;6.484;2023-05-29T12:18:08;68947.53;;;21.40;51.92
3844;BME280;1937;51.444;6.484;2023-05-29T12:20:34;68847.28;;;21.10;49.91
3844;BME280;1937;51.444;6.484;2023-05-29T12:23:01;68810.31;;;21.08;49.40
3844;BME280;1937;51.444;6.484;2023-05-29T12:25:28;68905.56;;;21.36;48.70
3844;BME280;1937;51.444;6.484;2023-05-29T12:27:56;68883.75;;;21.17;49.01
3844;BME280;1937;51.444;6.484;2023-05-29T12:30:23;68911.66;;;21.34;48.59
3844;BME280;1937;51.444;6.484;2023-05-29T12:32:51;68658.75;;;20.36;50.23
3844;BME280;1937;51.444;6.484;2023-05-29T12:35:21;68658.34;;;20.49;49.34
3844;BME280;1937;51.444;6.484;2023-05-29T12:37:48;68736.69;;;20.60;50.27
3844;BME280;1937;51.444;6.484;2023-05-29T12:40:17;68729.28;;;20.52;49.66
3844;BME280;1937;51.444;6.484;2023-05-29T12:42:45;68651.91;;;20.23;50.49
3844;BME280;1937;51.444;6.484;2023-05-29T12:45:12;68662.22;;;20.34;50.24
3844;BME280;1937;51.444;6.484;2023-05-29T12:47:45;68717.41;;;20.53;50.72
3844;BME280;1937;51.444;6.484;2023-05-29T12:50:21;68715.19;;;20.39;50.95
3844;BME280;1937;51.444;6.484;2023-05-29T12:52:58;68743.09;;;20.61;49.93
3844;BME280;1937;51.444;6.484;2023-05-29T12:55:26;68617.31;;;20.23;50.67
3844;BME280;1937;51.444;6.484;2023-05-29T12:57:54;68751.38;;;20.73;49.94
3844;BME280;1937;51.444;6.484;2023-05-29T13:00:21;68828.81;;;21.21;49.20
3844;BME280;1937;51.444;6.484;2023-05-29T13:02:48;68890.75;;;21.39;48.70
3844;BME280;1937;51.444;6.484;2023-05-29T13:05:16;68790.16;;;20.81;48.28
3844;BME280;1937;51.444;6.484;2023-05-29T13:07:46;68736.16;;;20.64;50.22
3844;BME280;1937;51.444;6.484;2023-05-29T13:10:13;68782.13;;;20.88;49.52
3844;BME280;1937;51.444;6.484;2023-05-29T13:12:40;68685.56;;;20.41;49.22
3844;BME280;1937;51.444;6.484;2023-05-29T13:15:07;68795.09;;;20.79;50.52
3844;BME280;1937;51.444;6.484;2023-05-29T13:17:34;68667.78;;;20.37;49.77
3844;BME280;1937;51.444;6.484;2023-05-29T13:20:00;68709.59;;;20.57;49.68
3844;BME280;1937;51.444;6.484;2023-05-29T13:22:27;68707.38;;;20.64;49.60
3844;BME280;1937;51.444;6.484;2023-05-29T13:24:58;68682.41;;;20.45;49.94
3844;BME280;1937;51.444;6.484;2023-05-29T13:27:25;68659.06;;;20.38;49.74
3844;BME280;1937;51.444;6.484;2023-05-29T13:29:52;68738.75;;;20.64;50.84
3844;BME280;1937;51.444;6.484;2023-05-29T13:32:19;68759.09;;;20.84;50.76